Parc national de Yoho, Colombie-Britannique

Conditions des dernières 24 heures

Ce tableau est un sommaire des conditions météo couvrant les dernières 24 heures. Ce sommaire inclut les paramètres suivants: température, humidité, point de rosée, direction et vitesse du vent, pression barométrique, facteur de refroidissement éolien ou indice humidex.
Date / Heure
(HAR)
Conditions Temp (°C) Humidite (%) Point de rose (°C) Vent (km/h) Pression (kPa) Vis (km) Humidex
01 août 2014
22:00 N.D. 16 45 4 ENE 5 101,9 N.D. *
21:00 N.D. 18 46 6 calme 101,9 N.D. *
20:00 N.D. 21 33 4 O 13 101,9 N.D. *
19:00 N.D. 22 41 8 O 8 101,9 N.D. *
18:00 N.D. 22 32 5 O 6 101,9 N.D. *
17:00 N.D. 27 18 1 O 17 rafale 27 101,8 N.D. *
16:00 N.D. 28   17 0 O 9 101,9 N.D. *
15:00 N.D. 27 16 -1 OSO 15 rafale 27 102,0 N.D. *
14:00 N.D. 27 25 5 OSO 10 102,0 N.D. *
13:00 N.D. 26 31 7 OSO 8 102,0 N.D. 26
12:00 N.D. 23 40 8 NE 9 102,1 N.D. *
11:00 N.D. 20 54 11 ENE 14 102,2 N.D. *
10:00 N.D. 18 61 11 E 14 102,2 N.D. *
9:00 N.D. 14 73 9 ENE 12 102,3 N.D. *
8:00 N.D. 9 80 6 calme 102,3 N.D. *
7:00 N.D. 8   82 5 ENE 4 102,2 N.D. *
6:00 N.D. 9 79 6 E 5 102,2 N.D. *
5:00 N.D. 8   85 6 ESE 3 102,1 N.D. *
4:00 N.D. 8   78 4 ENE 4 102,1 N.D. *
3:00 N.D. 8   78 4 calme 102,1 N.D. *
2:00 N.D. 8   79 4 E 5 102,1 N.D. *
1:00 N.D. 9 74 5 ENE 7 102,0 N.D. *
0:00 N.D. 10 73 6 ENE 3 102,0 N.D. *
31 juillet 2014
23:00 N.D. 12 71 7 ENE 4 102,0 N.D. *
22:00 N.D. 15 65 8 ENE 2 102,0 N.D. *
N.D.
non disponible
 ↑ 
température la plus haute
 ↓ 
température la plus basse
*
Valeur non significative.

Si vous désirez plus de données historiques sur les conditions météo, s.v.p. visitez Données climatologiques en ligne.